PWSweather.com
Personal Weather Stations
Station Observations
EA5BZ
Nuevo Altabix, ElcheES

Nuevo AltabixElcheES

Lat: 38.276, Lon: -0.671

Elevation: 0

Station Type: Davis Vantage Pro 2

http://meteoelche.es

High Low Average
Temperature 67.8°F19.9°C 47.8°F8.8°C 55.6°F13.1°C
Dew Point 40.1°F4.5°C 28.0°F-2.2°C 32.5°F0.3°C
Winds 16.3 mph 26.2 kmh 2.0 mph 3.2 kmh 8.0 mph WSW12.9 kmh WSW
Wind Gusts 22.6 mph36.4 kmh 2.9 mph4.7 kmh 11.0 mph17.7 kmh
Humidity 73% 27% 43%
Pressure 30.45 in1031.2 mb 30.38 in1028.8 mb -
Precipitation 0.00 in0.0 mm - -
Hour Temp Dew Point Humidity Winds Wind Gusts Pressure Precip Precip Rate Daily Precip Total
12:00 AM 48.4°F9.1°C 40.1°F4.5°C 73% 8.1 mph WSW13.0 kmh WSW 9.2 mph14.8 kmh 30.41 in1029.8 mb 0.00 in0.0 mm 0.00 in0.0 mm 0.00 in0.0 mm
12:05 AM 48.3°F9.1°C 39.7°F4.3°C 72% 7.8 mph WSW12.6 kmh WSW 9.2 mph14.8 kmh 30.41 in1029.8 mb 0.00 in0.0 mm 0.00 in0.0 mm 0.00 in0.0 mm
12:10 AM 48.1°F8.9°C 39.4°F4.1°C 72% 6.9 mph WSW11.1 kmh WSW 11.9 mph19.2 kmh 30.41 in1029.8 mb 0.00 in0.0 mm 0.00 in0.0 mm 0.00 in0.0 mm
12:15 AM 48.0°F8.9°C 39.0°F3.9°C 71% 7.3 mph WSW11.7 kmh WSW 10.7 mph17.2 kmh 30.40 in1029.5 mb 0.00 in0.0 mm 0.00 in0.0 mm 0.00 in0.0 mm
12:20 AM 48.0°F8.9°C 38.7°F3.7°C 70% 8.5 mph WSW13.7 kmh WSW 10.3 mph16.6 kmh 30.40 in1029.5 mb 0.00 in0.0 mm 0.00 in0.0 mm 0.00 in0.0 mm
12:25 AM 48.0°F8.9°C 38.3°F3.5°C 69% 8.3 mph WSW13.4 kmh WSW 10.7 mph17.2 kmh 30.41 in1029.8 mb 0.00 in0.0 mm 0.00 in0.0 mm 0.00 in0.0 mm
12:30 AM 48.1°F8.9°C 37.9°F3.3°C 68% 7.6 mph WSW12.2 kmh WSW 10.3 mph16.6 kmh 30.41 in1029.8 mb 0.00 in0.0 mm 0.00 in0.0 mm 0.00 in0.0 mm
12:35 AM 48.3°F9.1°C 37.6°F3.1°C 66% 7.6 mph WSW12.2 kmh WSW 9.6 mph15.4 kmh 30.41 in1029.8 mb 0.00 in0.0 mm 0.00 in0.0 mm 0.00 in0.0 mm
12:40 AM 48.4°F9.1°C 37.2°F2.9°C 65% 7.6 mph WSW12.2 kmh WSW 10.3 mph16.6 kmh 30.41 in1029.8 mb 0.00 in0.0 mm 0.00 in0.0 mm 0.00 in0.0 mm
12:45 AM 48.4°F9.1°C 37.0°F2.8°C 64% 7.6 mph WSW12.2 kmh WSW 10.3 mph16.6 kmh 30.41 in1029.8 mb 0.00 in0.0 mm 0.00 in0.0 mm 0.00 in0.0 mm
12:50 AM 48.6°F9.2°C 36.7°F2.6°C 63% 7.6 mph WSW12.2 kmh WSW 11.4 mph18.3 kmh 30.41 in1029.8 mb 0.00 in0.0 mm 0.00 in0.0 mm 0.00 in0.0 mm
12:55 AM 48.6°F9.2°C 36.4°F2.4°C 63% 7.8 mph WSW12.6 kmh WSW 13.4 mph21.6 kmh 30.41 in1029.8 mb 0.00 in0.0 mm 0.00 in0.0 mm 0.00 in0.0 mm
01:00 AM 48.6°F9.2°C 36.1°F2.3°C 62% 8.5 mph WSW13.7 kmh WSW 16.3 mph26.2 kmh 30.41 in1029.8 mb 0.00 in0.0 mm 0.00 in0.0 mm 0.00 in0.0 mm
01:05 AM 48.6°F9.2°C 36.1°F2.3°C 62% 9.1 mph WSW14.6 kmh WSW 13.4 mph21.6 kmh 30.41 in1029.8 mb 0.00 in0.0 mm 0.00 in0.0 mm 0.00 in0.0 mm
01:10 AM 48.6°F9.2°C 36.1°F2.3°C 62% 11.2 mph WSW18.0 kmh WSW 15.9 mph25.6 kmh 30.41 in1029.8 mb 0.00 in0.0 mm 0.00 in0.0 mm 0.00 in0.0 mm
01:15 AM 48.4°F9.1°C 36.0°F2.2°C 62% 11.1 mph WSW17.9 kmh WSW 14.5 mph23.3 kmh 30.41 in1029.8 mb 0.00 in0.0 mm 0.00 in0.0 mm 0.00 in0.0 mm
01:20 AM 48.3°F9.1°C 35.9°F2.2°C 62% 10.7 mph WSW17.2 kmh WSW 15.9 mph25.6 kmh 30.41 in1029.8 mb 0.00 in0.0 mm 0.00 in0.0 mm 0.00 in0.0 mm
01:25 AM 48.1°F8.9°C 35.7°F2.1°C 62% 10.6 mph WSW17.1 kmh WSW 14.8 mph23.8 kmh 30.41 in1029.8 mb 0.00 in0.0 mm 0.00 in0.0 mm 0.00 in0.0 mm
01:30 AM 48.0°F8.9°C 35.5°F1.9°C 62% 10.3 mph WSW16.6 kmh WSW 14.8 mph23.8 kmh 30.40 in1029.5 mb 0.00 in0.0 mm 0.00 in0.0 mm 0.00 in0.0 mm
01:35 AM 47.9°F8.8°C 35.1°F1.7°C 61% 10.4 mph WSW16.7 kmh WSW 13.0 mph20.9 kmh 30.40 in1029.5 mb 0.00 in0.0 mm 0.00 in0.0 mm 0.00 in0.0 mm
01:40 AM 47.8°F8.8°C 34.9°F1.6°C 61% 10.7 mph WSW17.2 kmh WSW 14.5 mph23.3 kmh 30.40 in1029.5 mb 0.00 in0.0 mm 0.00 in0.0 mm 0.00 in0.0 mm
01:45 AM 47.8°F8.8°C 34.6°F1.4°C 60% 10.6 mph WSW17.1 kmh WSW 12.3 mph19.8 kmh 30.40 in1029.5 mb 0.00 in0.0 mm 0.00 in0.0 mm 0.00 in0.0 mm
01:50 AM 47.8°F8.8°C 34.6°F1.4°C 60% 10.1 mph WSW16.3 kmh WSW 11.2 mph18.0 kmh 30.40 in1029.5 mb 0.00 in0.0 mm 0.00 in0.0 mm 0.00 in0.0 mm
01:55 AM 47.8°F8.8°C 34.3°F1.3°C 59% 9.6 mph WSW15.4 kmh WSW 10.3 mph16.6 kmh 30.40 in1029.5 mb 0.00 in0.0 mm 0.00 in0.0 mm 0.00 in0.0 mm
02:00 AM 47.8°F8.8°C 34.2°F1.2°C 59% 8.1 mph WSW13.0 kmh WSW 12.3 mph19.8 kmh 30.40 in1029.5 mb 0.00 in0.0 mm 0.00 in0.0 mm 0.00 in0.0 mm
02:05 AM 48.0°F8.9°C 33.8°F1.0°C 58% 8.4 mph WSW13.5 kmh WSW 14.8 mph23.8 kmh 30.40 in1029.5 mb 0.00 in0.0 mm 0.00 in0.0 mm 0.00 in0.0 mm
02:10 AM 48.3°F9.1°C 33.7°F0.9°C 57% 9.6 mph WSW15.4 kmh WSW 14.1 mph22.7 kmh 30.40 in1029.5 mb 0.00 in0.0 mm 0.00 in0.0 mm 0.00 in0.0 mm
02:15 AM 48.6°F9.2°C 33.6°F0.9°C 56% 9.4 mph WSW15.1 kmh WSW 10.7 mph17.2 kmh 30.39 in1029.1 mb 0.00 in0.0 mm 0.00 in0.0 mm 0.00 in0.0 mm
02:20 AM 48.6°F9.2°C 33.6°F0.9°C 56% 8.5 mph WSW13.7 kmh WSW 11.4 mph18.3 kmh 30.39 in1029.1 mb 0.00 in0.0 mm 0.00 in0.0 mm 0.00 in0.0 mm
02:25 AM 48.6°F9.2°C 33.4°F0.8°C 56% 8.5 mph WSW13.7 kmh WSW 12.5 mph20.1 kmh 30.40 in1029.5 mb 0.00 in0.0 mm 0.00 in0.0 mm 0.00 in0.0 mm
02:30 AM 48.7°F9.3°C 33.2°F0.7°C 55% 8.5 mph WSW13.7 kmh WSW 12.5 mph20.1 kmh 30.40 in1029.5 mb 0.00 in0.0 mm 0.00 in0.0 mm 0.00 in0.0 mm
02:35 AM 48.7°F9.3°C 33.0°F0.6°C 54% 8.5 mph WSW13.7 kmh WSW 11.4 mph18.3 kmh 30.40 in1029.5 mb 0.00 in0.0 mm 0.00 in0.0 mm 0.00 in0.0 mm
02:40 AM 48.7°F9.3°C 32.8°F0.4°C 54% 8.5 mph WSW13.7 kmh WSW 11.9 mph19.2 kmh 30.40 in1029.5 mb 0.00 in0.0 mm 0.00 in0.0 mm 0.00 in0.0 mm
02:45 AM 48.6°F9.2°C 32.7°F0.4°C 54% 8.5 mph WSW13.7 kmh WSW 11.9 mph19.2 kmh 30.40 in1029.5 mb 0.00 in0.0 mm 0.00 in0.0 mm 0.00 in0.0 mm
02:50 AM 48.6°F9.2°C 32.5°F0.3°C 54% 8.7 mph WSW14.0 kmh WSW 10.7 mph17.2 kmh 30.40 in1029.5 mb 0.00 in0.0 mm 0.00 in0.0 mm 0.00 in0.0 mm
02:55 AM 48.6°F9.2°C 32.2°F0.1°C 53% 8.7 mph WSW14.0 kmh WSW 13.0 mph20.9 kmh 30.40 in1029.5 mb 0.00 in0.0 mm 0.00 in0.0 mm 0.00 in0.0 mm
03:00 AM 48.5°F9.2°C 32.2°F0.1°C 53% 8.7 mph WSW14.0 kmh WSW 12.5 mph20.1 kmh 30.40 in1029.5 mb 0.00 in0.0 mm 0.00 in0.0 mm 0.00 in0.0 mm
03:05 AM 48.4°F9.1°C 32.1°F0.1°C 53% 8.7 mph WSW14.0 kmh WSW 10.3 mph16.6 kmh 30.40 in1029.5 mb 0.00 in0.0 mm 0.00 in0.0 mm 0.00 in0.0 mm
03:10 AM 48.4°F9.1°C 32.0°F0.0°C 53% 8.7 mph WSW14.0 kmh WSW 11.9 mph19.2 kmh 30.40 in1029.5 mb 0.00 in0.0 mm 0.00 in0.0 mm 0.00 in0.0 mm
03:15 AM 48.3°F9.1°C 32.0°F0.0°C 53% 8.5 mph WSW13.7 kmh WSW 11.9 mph19.2 kmh 30.40 in1029.5 mb 0.00 in0.0 mm 0.00 in0.0 mm 0.00 in0.0 mm
03:20 AM 48.3°F9.1°C 31.7°F-0.2°C 52% 7.6 mph WSW12.2 kmh WSW 12.3 mph19.8 kmh 30.40 in1029.5 mb 0.00 in0.0 mm 0.00 in0.0 mm 0.00 in0.0 mm
03:25 AM 48.4°F9.1°C 31.6°F-0.2°C 52% 7.8 mph WSW12.6 kmh WSW 11.4 mph18.3 kmh 30.40 in1029.5 mb 0.00 in0.0 mm 0.00 in0.0 mm 0.00 in0.0 mm
03:30 AM 48.4°F9.1°C 31.6°F-0.2°C 52% 8.5 mph WSW13.7 kmh WSW 11.2 mph18.0 kmh 30.40 in1029.5 mb 0.00 in0.0 mm 0.00 in0.0 mm 0.00 in0.0 mm
03:35 AM 48.4°F9.1°C 31.6°F-0.2°C 52% 8.5 mph WSW13.7 kmh WSW 10.7 mph17.2 kmh 30.40 in1029.5 mb 0.00 in0.0 mm 0.00 in0.0 mm 0.00 in0.0 mm
03:40 AM 48.4°F9.1°C 31.6°F-0.2°C 52% 8.5 mph WSW13.7 kmh WSW 10.1 mph16.3 kmh 30.40 in1029.5 mb 0.00 in0.0 mm 0.00 in0.0 mm 0.00 in0.0 mm
03:45 AM 48.4°F9.1°C 31.2°F-0.4°C 51% 8.4 mph WSW13.5 kmh WSW 11.2 mph18.0 kmh 30.40 in1029.5 mb 0.00 in0.0 mm 0.00 in0.0 mm 0.00 in0.0 mm
03:50 AM 48.5°F9.2°C 31.2°F-0.4°C 51% 8.1 mph WSW13.0 kmh WSW 13.4 mph21.6 kmh 30.40 in1029.5 mb 0.00 in0.0 mm 0.00 in0.0 mm 0.00 in0.0 mm
03:55 AM 48.6°F9.2°C 31.2°F-0.4°C 51% 8.2 mph WSW13.2 kmh WSW 12.5 mph20.1 kmh 30.40 in1029.5 mb 0.00 in0.0 mm 0.00 in0.0 mm 0.00 in0.0 mm
04:00 AM 48.6°F9.2°C 30.8°F-0.7°C 50% 8.5 mph WSW13.7 kmh WSW 11.4 mph18.3 kmh 30.40 in1029.5 mb 0.00 in0.0 mm 0.00 in0.0 mm 0.00 in0.0 mm
04:05 AM 48.6°F9.2°C 30.8°F-0.7°C 50% 8.5 mph WSW13.7 kmh WSW 11.2 mph18.0 kmh 30.40 in1029.5 mb 0.00 in0.0 mm 0.00 in0.0 mm 0.00 in0.0 mm
04:10 AM 48.6°F9.2°C 30.8°F-0.7°C 50% 8.5 mph WSW13.7 kmh WSW 11.4 mph18.3 kmh 30.40 in1029.5 mb 0.00 in0.0 mm 0.00 in0.0 mm 0.00 in0.0 mm
04:15 AM 48.7°F9.3°C 30.5°F-0.8°C 49% 8.5 mph WSW13.7 kmh WSW 11.2 mph18.0 kmh 30.40 in1029.5 mb 0.00 in0.0 mm 0.00 in0.0 mm 0.00 in0.0 mm
04:20 AM 48.7°F9.3°C 30.4°F-0.9°C 49% 8.5 mph WSW13.7 kmh WSW 12.5 mph20.1 kmh 30.40 in1029.5 mb 0.00 in0.0 mm 0.00 in0.0 mm 0.00 in0.0 mm
04:25 AM 48.8°F9.3°C 30.0°F-1.1°C 48% 8.6 mph WSW13.8 kmh WSW 12.3 mph19.8 kmh 30.40 in1029.5 mb 0.00 in0.0 mm 0.00 in0.0 mm 0.00 in0.0 mm
04:30 AM 48.9°F9.4°C 30.1°F-1.1°C 48% 9.2 mph WSW14.8 kmh WSW 12.5 mph20.1 kmh 30.40 in1029.5 mb 0.00 in0.0 mm 0.00 in0.0 mm 0.00 in0.0 mm
04:35 AM 48.9°F9.4°C 29.9°F-1.2°C 48% 9.4 mph WSW15.1 kmh WSW 15.2 mph24.5 kmh 30.40 in1029.5 mb 0.00 in0.0 mm 0.00 in0.0 mm 0.00 in0.0 mm
04:40 AM 48.8°F9.3°C 29.5°F-1.4°C 47% 10.1 mph W16.3 kmh W 14.5 mph23.3 kmh 30.40 in1029.5 mb 0.00 in0.0 mm 0.00 in0.0 mm 0.00 in0.0 mm
04:45 AM 48.7°F9.3°C 29.4°F-1.4°C 47% 10.1 mph WSW16.3 kmh WSW 13.6 mph21.9 kmh 30.40 in1029.5 mb 0.00 in0.0 mm 0.00 in0.0 mm 0.00 in0.0 mm
04:50 AM 48.7°F9.3°C 29.4°F-1.4°C 47% 10.3 mph WSW16.6 kmh WSW 14.1 mph22.7 kmh 30.40 in1029.5 mb 0.00 in0.0 mm 0.00 in0.0 mm 0.00 in0.0 mm
04:55 AM 48.6°F9.2°C 29.3°F-1.5°C 47% 10.2 mph WSW16.4 kmh WSW 14.8 mph23.8 kmh 30.40 in1029.5 mb 0.00 in0.0 mm 0.00 in0.0 mm 0.00 in0.0 mm
05:00 AM 48.6°F9.2°C 29.3°F-1.5°C 47% 10.1 mph W16.3 kmh W 12.5 mph20.1 kmh 30.39 in1029.1 mb 0.00 in0.0 mm 0.00 in0.0 mm 0.00 in0.0 mm
05:05 AM 48.6°F9.2°C 29.3°F-1.5°C 47% 10.1 mph W16.3 kmh W 14.8 mph23.8 kmh 30.39 in1029.1 mb 0.00 in0.0 mm 0.00 in0.0 mm 0.00 in0.0 mm
05:10 AM 48.8°F9.3°C 29.4°F-1.4°C 47% 10.1 mph WSW16.3 kmh WSW 14.5 mph23.3 kmh 30.39 in1029.1 mb 0.00 in0.0 mm 0.00 in0.0 mm 0.00 in0.0 mm
05:15 AM 48.9°F9.4°C 29.2°F-1.6°C 46% 10.4 mph WSW16.7 kmh WSW 17.4 mph28.0 kmh 30.39 in1029.1 mb 0.00 in0.0 mm 0.00 in0.0 mm 0.00 in0.0 mm
05:20 AM 48.9°F9.4°C 29.1°F-1.6°C 46% 11.4 mph WSW18.3 kmh WSW 16.8 mph27.0 kmh 30.39 in1029.1 mb 0.00 in0.0 mm 0.00 in0.0 mm 0.00 in0.0 mm
05:25 AM 48.9°F9.4°C 29.1°F-1.6°C 46% 11.5 mph WSW18.5 kmh WSW 15.7 mph25.3 kmh 30.39 in1029.1 mb 0.00 in0.0 mm 0.00 in0.0 mm 0.00 in0.0 mm
05:30 AM 48.9°F9.4°C 29.4°F-1.4°C 47% 11.9 mph WSW19.2 kmh WSW 18.1 mph29.1 kmh 30.38 in1028.8 mb 0.00 in0.0 mm 0.00 in0.0 mm 0.00 in0.0 mm
05:35 AM 48.9°F9.4°C 29.1°F-1.6°C 46% 12.0 mph WSW19.3 kmh WSW 16.8 mph27.0 kmh 30.38 in1028.8 mb 0.00 in0.0 mm 0.00 in0.0 mm 0.00 in0.0 mm
05:40 AM 48.9°F9.4°C 29.1°F-1.6°C 46% 12.3 mph WSW19.8 kmh WSW 16.8 mph27.0 kmh 30.38 in1028.8 mb 0.00 in0.0 mm 0.00 in0.0 mm 0.00 in0.0 mm
05:45 AM 49.0°F9.4°C 29.1°F-1.6°C 46% 12.2 mph WSW19.6 kmh WSW 15.2 mph24.5 kmh 30.38 in1028.8 mb 0.00 in0.0 mm 0.00 in0.0 mm 0.00 in0.0 mm
05:50 AM 49.0°F9.4°C 28.9°F-1.7°C 46% 11.9 mph W19.2 kmh W 15.7 mph25.3 kmh 30.38 in1028.8 mb 0.00 in0.0 mm 0.00 in0.0 mm 0.00 in0.0 mm
05:55 AM 49.1°F9.5°C 28.7°F-1.8°C 45% 11.8 mph W19.0 kmh W 15.2 mph24.5 kmh 30.38 in1028.8 mb 0.00 in0.0 mm 0.00 in0.0 mm 0.00 in0.0 mm
06:00 AM 49.2°F9.6°C 28.7°F-1.8°C 45% 11.4 mph W18.3 kmh W 18.1 mph29.1 kmh 30.38 in1028.8 mb 0.00 in0.0 mm 0.00 in0.0 mm 0.00 in0.0 mm
06:05 AM 49.4°F9.7°C 28.9°F-1.7°C 45% 11.8 mph W19.0 kmh W 19.0 mph30.6 kmh 30.38 in1028.8 mb 0.00 in0.0 mm 0.00 in0.0 mm 0.00 in0.0 mm
06:10 AM 49.5°F9.7°C 28.5°F-1.9°C 44% 13.0 mph W20.9 kmh W 17.0 mph27.4 kmh 30.38 in1028.8 mb 0.00 in0.0 mm 0.00 in0.0 mm 0.00 in0.0 mm
06:15 AM 49.6°F9.8°C 28.6°F-1.9°C 44% 13.1 mph W21.1 kmh W 17.4 mph28.0 kmh 30.38 in1028.8 mb 0.00 in0.0 mm 0.00 in0.0 mm 0.00 in0.0 mm
06:20 AM 49.6°F9.8°C 28.6°F-1.9°C 44% 13.4 mph W21.6 kmh W 19.0 mph30.6 kmh 30.38 in1028.8 mb 0.00 in0.0 mm 0.00 in0.0 mm 0.00 in0.0 mm
06:25 AM 49.6°F9.8°C 28.6°F-1.9°C 44% 13.6 mph W21.9 kmh W 21.3 mph34.3 kmh 30.39 in1029.1 mb 0.00 in0.0 mm 0.00 in0.0 mm 0.00 in0.0 mm
06:30 AM 49.6°F9.8°C 28.2°F-2.1°C 43% 14.1 mph WSW22.7 kmh WSW 21.3 mph34.3 kmh 30.39 in1029.1 mb 0.00 in0.0 mm 0.00 in0.0 mm 0.00 in0.0 mm
06:35 AM 49.6°F9.8°C 28.2°F-2.1°C 43% 14.4 mph WSW23.2 kmh WSW 22.6 mph36.4 kmh 30.39 in1029.1 mb 0.00 in0.0 mm 0.00 in0.0 mm 0.00 in0.0 mm
06:40 AM 49.5°F9.7°C 28.5°F-1.9°C 44% 15.7 mph WSW25.3 kmh WSW 21.9 mph35.2 kmh 30.39 in1029.1 mb 0.00 in0.0 mm 0.00 in0.0 mm 0.00 in0.0 mm
06:45 AM 49.5°F9.7°C 28.5°F-1.9°C 44% 15.6 mph WSW25.1 kmh WSW 21.9 mph35.2 kmh 30.39 in1029.1 mb 0.00 in0.0 mm 0.00 in0.0 mm 0.00 in0.0 mm
06:50 AM 49.4°F9.7°C 28.4°F-2.0°C 44% 15.2 mph WSW24.5 kmh WSW 21.5 mph34.6 kmh 30.39 in1029.1 mb 0.00 in0.0 mm 0.00 in0.0 mm 0.00 in0.0 mm
06:55 AM 49.3°F9.6°C 28.3°F-2.1°C 44% 15.5 mph WSW24.9 kmh WSW 21.9 mph35.2 kmh 30.39 in1029.1 mb 0.00 in0.0 mm 0.00 in0.0 mm 0.00 in0.0 mm
07:00 AM 49.3°F9.6°C 28.3°F-2.1°C 44% 16.3 mph WSW26.2 kmh WSW 20.8 mph33.5 kmh 30.39 in1029.1 mb 0.00 in0.0 mm 0.00 in0.0 mm 0.00 in0.0 mm
07:05 AM 49.3°F9.6°C 28.6°F-1.9°C 44% 15.7 mph WSW25.3 kmh WSW 17.9 mph28.8 kmh 30.39 in1029.1 mb 0.00 in0.0 mm 0.00 in0.0 mm 0.00 in0.0 mm
07:10 AM 49.1°F9.5°C 28.7°F-1.8°C 45% 13.6 mph WSW21.9 kmh WSW 16.3 mph26.2 kmh 30.39 in1029.1 mb 0.00 in0.0 mm 0.00 in0.0 mm 0.00 in0.0 mm
07:15 AM 49.1°F9.5°C 28.7°F-1.8°C 45% 13.3 mph WSW21.4 kmh WSW 19.2 mph30.9 kmh 30.39 in1029.1 mb 0.00 in0.0 mm 0.00 in0.0 mm 0.00 in0.0 mm
07:20 AM 49.1°F9.5°C 28.3°F-2.1°C 44% 11.9 mph WSW19.2 kmh WSW 20.1 mph32.3 kmh 30.39 in1029.1 mb 0.00 in0.0 mm 0.00 in0.0 mm 0.00 in0.0 mm
07:25 AM 49.3°F9.6°C 28.3°F-2.1°C 44% 12.5 mph WSW20.1 kmh WSW 19.7 mph31.7 kmh 30.39 in1029.1 mb 0.00 in0.0 mm 0.00 in0.0 mm 0.00 in0.0 mm
07:30 AM 49.5°F9.7°C 28.5°F-1.9°C 44% 14.5 mph WSW23.3 kmh WSW 18.1 mph29.1 kmh 30.39 in1029.1 mb 0.00 in0.0 mm 0.00 in0.0 mm 0.00 in0.0 mm
07:35 AM 49.5°F9.7°C 28.5°F-1.9°C 44% 14.3 mph WSW23.0 kmh WSW 19.0 mph30.6 kmh 30.39 in1029.1 mb 0.00 in0.0 mm 0.00 in0.0 mm 0.00 in0.0 mm
07:40 AM 49.6°F9.8°C 28.6°F-1.9°C 44% 13.6 mph WSW21.9 kmh WSW 19.7 mph31.7 kmh 30.39 in1029.1 mb 0.00 in0.0 mm 0.00 in0.0 mm 0.00 in0.0 mm
07:45 AM 49.6°F9.8°C 28.6°F-1.9°C 44% 13.8 mph WSW22.2 kmh WSW 20.1 mph32.3 kmh 30.39 in1029.1 mb 0.00 in0.0 mm 0.00 in0.0 mm 0.00 in0.0 mm
07:50 AM 49.5°F9.7°C 28.5°F-1.9°C 44% 14.5 mph WSW23.3 kmh WSW 20.1 mph32.3 kmh 30.39 in1029.1 mb 0.00 in0.0 mm 0.00 in0.0 mm 0.00 in0.0 mm
07:55 AM 49.3°F9.6°C 28.4°F-2.0°C 44% 14.7 mph WSW23.7 kmh WSW 22.4 mph36.0 kmh 30.40 in1029.5 mb 0.00 in0.0 mm 0.00 in0.0 mm 0.00 in0.0 mm
08:00 AM 49.3°F9.6°C 28.3°F-2.1°C 44% 15.2 mph WSW24.5 kmh WSW 21.9 mph35.2 kmh 30.40 in1029.5 mb 0.00 in0.0 mm 0.00 in0.0 mm 0.00 in0.0 mm
08:05 AM 49.3°F9.6°C 28.4°F-2.0°C 44% 15.3 mph WSW24.6 kmh WSW 21.5 mph34.6 kmh 30.40 in1029.5 mb 0.00 in0.0 mm 0.00 in0.0 mm 0.00 in0.0 mm
08:10 AM 49.3°F9.6°C 28.3°F-2.1°C 44% 15.7 mph WSW25.3 kmh WSW 22.6 mph36.4 kmh 30.40 in1029.5 mb 0.00 in0.0 mm 0.00 in0.0 mm 0.00 in0.0 mm
08:15 AM 49.3°F9.6°C 28.3°F-2.1°C 44% 15.5 mph WSW24.9 kmh WSW 19.0 mph30.6 kmh 30.40 in1029.5 mb 0.00 in0.0 mm 0.00 in0.0 mm 0.00 in0.0 mm
08:20 AM 49.3°F9.6°C 28.3°F-2.1°C 44% 14.8 mph W23.8 kmh W 16.8 mph27.0 kmh 30.40 in1029.5 mb 0.00 in0.0 mm 0.00 in0.0 mm 0.00 in0.0 mm
08:25 AM 49.6°F9.8°C 28.0°F-2.2°C 43% 14.3 mph W23.0 kmh W 14.8 mph23.8 kmh 30.41 in1029.8 mb 0.00 in0.0 mm 0.00 in0.0 mm 0.00 in0.0 mm
08:30 AM 49.9°F9.9°C 28.3°F-2.1°C 43% 12.5 mph W20.1 kmh W 17.0 mph27.4 kmh 30.41 in1029.8 mb 0.00 in0.0 mm 0.00 in0.0 mm 0.00 in0.0 mm
08:35 AM 50.2°F10.1°C 28.6°F-1.9°C 43% 12.7 mph W20.4 kmh W 21.3 mph34.3 kmh 30.41 in1029.8 mb 0.00 in0.0 mm 0.00 in0.0 mm 0.00 in0.0 mm
08:40 AM 50.5°F10.3°C 28.4°F-2.0°C 42% 13.4 mph WSW21.6 kmh WSW 20.4 mph32.8 kmh 30.41 in1029.8 mb 0.00 in0.0 mm 0.00 in0.0 mm 0.00 in0.0 mm
08:45 AM 51.0°F10.6°C 28.7°F-1.8°C 42% 13.7 mph WSW22.0 kmh WSW 21.3 mph34.3 kmh 30.42 in1030.1 mb 0.00 in0.0 mm 0.00 in0.0 mm 0.00 in0.0 mm
08:50 AM 51.1°F10.6°C 28.8°F-1.8°C 42% 14.8 mph W23.8 kmh W 22.6 mph36.4 kmh 30.42 in1030.1 mb 0.00 in0.0 mm 0.00 in0.0 mm 0.00 in0.0 mm
08:55 AM 51.2°F10.7°C 28.9°F-1.7°C 42% 14.5 mph W23.3 kmh W 17.0 mph27.4 kmh 30.42 in1030.1 mb 0.00 in0.0 mm 0.00 in0.0 mm 0.00 in0.0 mm
09:00 AM 51.4°F10.8°C 29.1°F-1.6°C 42% 13.4 mph W21.6 kmh W 18.6 mph29.9 kmh 30.42 in1030.1 mb 0.00 in0.0 mm 0.00 in0.0 mm 0.00 in0.0 mm
09:05 AM 51.4°F10.8°C 29.1°F-1.6°C 42% 13.4 mph WSW21.6 kmh WSW 17.9 mph28.8 kmh 30.42 in1030.1 mb 0.00 in0.0 mm 0.00 in0.0 mm 0.00 in0.0 mm
09:10 AM 51.4°F10.8°C 29.1°F-1.6°C 42% 13.4 mph WSW21.6 kmh WSW 14.5 mph23.3 kmh 30.43 in1030.5 mb 0.00 in0.0 mm 0.00 in0.0 mm 0.00 in0.0 mm
09:15 AM 51.7°F10.9°C 28.8°F-1.8°C 41% 12.6 mph WSW20.3 kmh WSW 13.4 mph21.6 kmh 30.43 in1030.5 mb 0.00 in0.0 mm 0.00 in0.0 mm 0.00 in0.0 mm
09:20 AM 52.2°F11.2°C 29.1°F-1.6°C 41% 9.6 mph WSW15.4 kmh WSW 14.1 mph22.7 kmh 30.43 in1030.5 mb 0.00 in0.0 mm 0.00 in0.0 mm 0.00 in0.0 mm
09:25 AM 52.8°F11.6°C 29.1°F-1.6°C 40% 9.8 mph WSW15.8 kmh WSW 13.0 mph20.9 kmh 30.43 in1030.5 mb 0.00 in0.0 mm 0.00 in0.0 mm 0.00 in0.0 mm
09:30 AM 53.2°F11.8°C 29.5°F-1.4°C 40% 10.3 mph W16.6 kmh W 13.4 mph21.6 kmh 30.43 in1030.5 mb 0.00 in0.0 mm 0.00 in0.0 mm 0.00 in0.0 mm
09:35 AM 53.4°F11.9°C 29.7°F-1.3°C 40% 10.0 mph W16.1 kmh W 12.3 mph19.8 kmh 30.43 in1030.5 mb 0.00 in0.0 mm 0.00 in0.0 mm 0.00 in0.0 mm
09:40 AM 53.8°F12.1°C 29.5°F-1.4°C 39% 9.2 mph WSW14.8 kmh WSW 13.6 mph21.9 kmh 30.43 in1030.5 mb 0.00 in0.0 mm 0.00 in0.0 mm 0.00 in0.0 mm
09:45 AM 54.1°F12.3°C 29.7°F-1.3°C 39% 9.3 mph WSW15.0 kmh WSW 14.1 mph22.7 kmh 30.43 in1030.5 mb 0.00 in0.0 mm 0.00 in0.0 mm 0.00 in0.0 mm
09:50 AM 54.3°F12.4°C 29.2°F-1.6°C 38% 9.6 mph W15.4 kmh W 12.5 mph20.1 kmh 30.43 in1030.5 mb 0.00 in0.0 mm 0.00 in0.0 mm 0.00 in0.0 mm
09:55 AM 54.7°F12.6°C 29.6°F-1.3°C 38% 9.4 mph W15.1 kmh W 12.3 mph19.8 kmh 30.44 in1030.8 mb 0.00 in0.0 mm 0.00 in0.0 mm 0.00 in0.0 mm
10:00 AM 54.9°F12.7°C 29.8°F-1.2°C 38% 8.5 mph WSW13.7 kmh WSW 11.9 mph19.2 kmh 30.44 in1030.8 mb 0.00 in0.0 mm 0.00 in0.0 mm 0.00 in0.0 mm
10:05 AM 55.3°F12.9°C 29.9°F-1.2°C 38% 8.4 mph WSW13.5 kmh WSW 11.2 mph18.0 kmh 30.44 in1030.8 mb 0.00 in0.0 mm 0.00 in0.0 mm 0.00 in0.0 mm
10:10 AM 55.9°F13.3°C 30.0°F-1.1°C 37% 8.1 mph WSW13.0 kmh WSW 10.1 mph16.3 kmh 30.44 in1030.8 mb 0.00 in0.0 mm 0.00 in0.0 mm 0.00 in0.0 mm
10:15 AM 56.6°F13.7°C 30.5°F-0.8°C 37% 7.8 mph WSW12.6 kmh WSW 10.7 mph17.2 kmh 30.44 in1030.8 mb 0.00 in0.0 mm 0.00 in0.0 mm 0.00 in0.0 mm
10:20 AM 57.1°F13.9°C 30.4°F-0.9°C 36% 6.9 mph WSW11.1 kmh WSW 12.5 mph20.1 kmh 30.44 in1030.8 mb 0.00 in0.0 mm 0.00 in0.0 mm 0.00 in0.0 mm
10:25 AM 57.4°F14.1°C 30.6°F-0.8°C 36% 7.0 mph WSW11.3 kmh WSW 12.5 mph20.1 kmh 30.44 in1030.8 mb 0.00 in0.0 mm 0.00 in0.0 mm 0.00 in0.0 mm
10:30 AM 57.2°F14.0°C 30.5°F-0.8°C 36% 7.4 mph WSW11.9 kmh WSW 12.5 mph20.1 kmh 30.44 in1030.8 mb 0.00 in0.0 mm 0.00 in0.0 mm 0.00 in0.0 mm
10:35 AM 57.1°F13.9°C 30.4°F-0.9°C 36% 7.8 mph WSW12.6 kmh WSW 14.1 mph22.7 kmh 30.44 in1030.8 mb 0.00 in0.0 mm 0.00 in0.0 mm 0.00 in0.0 mm
10:40 AM 57.1°F13.9°C 30.4°F-0.9°C 36% 9.2 mph WSW14.8 kmh WSW 14.8 mph23.8 kmh 30.44 in1030.8 mb 0.00 in0.0 mm 0.00 in0.0 mm 0.00 in0.0 mm
10:45 AM 57.4°F14.1°C 30.8°F-0.7°C 36% 9.1 mph WSW14.6 kmh WSW 11.4 mph18.3 kmh 30.44 in1030.8 mb 0.00 in0.0 mm 0.00 in0.0 mm 0.00 in0.0 mm
10:50 AM 57.8°F14.3°C 31.0°F-0.6°C 36% 8.7 mph WSW14.0 kmh WSW 12.3 mph19.8 kmh 30.44 in1030.8 mb 0.00 in0.0 mm 0.00 in0.0 mm 0.00 in0.0 mm
10:55 AM 58.5°F14.7°C 31.0°F-0.6°C 35% 8.4 mph WSW13.5 kmh WSW 9.6 mph15.4 kmh 30.45 in1031.2 mb 0.00 in0.0 mm 0.00 in0.0 mm 0.00 in0.0 mm
11:00 AM 59.1°F15.1°C 31.1°F-0.5°C 34% 7.4 mph WSW11.9 kmh WSW 9.2 mph14.8 kmh 30.45 in1031.2 mb 0.00 in0.0 mm 0.00 in0.0 mm 0.00 in0.0 mm
11:05 AM 59.9°F15.5°C 31.3°F-0.4°C 34% 7.2 mph WSW11.6 kmh WSW 8.7 mph14.0 kmh 30.45 in1031.2 mb 0.00 in0.0 mm 0.00 in0.0 mm 0.00 in0.0 mm
11:10 AM 60.6°F15.9°C 31.2°F-0.4°C 33% 6.5 mph WSW10.5 kmh WSW 10.7 mph17.2 kmh 30.45 in1031.2 mb 0.00 in0.0 mm 0.00 in0.0 mm 0.00 in0.0 mm
11:15 AM 61.2°F16.2°C 31.1°F-0.5°C 32% 6.2 mph WSW10.0 kmh WSW 6.9 mph11.1 kmh 30.45 in1031.2 mb 0.00 in0.0 mm 0.00 in0.0 mm 0.00 in0.0 mm
11:20 AM 61.8°F16.6°C 31.6°F-0.2°C 32% 5.4 mph WSW8.7 kmh WSW 6.5 mph10.5 kmh 30.45 in1031.2 mb 0.00 in0.0 mm 0.00 in0.0 mm 0.00 in0.0 mm
11:25 AM 62.3°F16.8°C 32.1°F0.1°C 32% 5.2 mph WSW8.4 kmh WSW 6.9 mph11.1 kmh 30.45 in1031.2 mb 0.00 in0.0 mm 0.00 in0.0 mm 0.00 in0.0 mm
11:30 AM 62.8°F17.1°C 32.5°F0.3°C 32% 4.7 mph SW7.6 kmh SW 5.8 mph9.3 kmh 30.45 in1031.2 mb 0.00 in0.0 mm 0.00 in0.0 mm 0.00 in0.0 mm
11:35 AM 63.1°F17.3°C 32.8°F0.4°C 32% 4.6 mph SW7.4 kmh SW 6.3 mph10.1 kmh 30.45 in1031.2 mb 0.00 in0.0 mm 0.00 in0.0 mm 0.00 in0.0 mm
11:40 AM 63.4°F17.4°C 32.3°F0.2°C 31% 4.3 mph SW6.9 kmh SW 6.3 mph10.1 kmh 30.44 in1030.8 mb 0.00 in0.0 mm 0.00 in0.0 mm 0.00 in0.0 mm
11:45 AM 63.8°F17.7°C 32.4°F0.2°C 31% 4.4 mph SW7.1 kmh SW 7.4 mph11.9 kmh 30.44 in1030.8 mb 0.00 in0.0 mm 0.00 in0.0 mm 0.00 in0.0 mm
11:50 AM 64.1°F17.8°C 32.1°F0.1°C 30% 5.1 mph WSW8.2 kmh WSW 5.8 mph9.3 kmh 30.44 in1030.8 mb 0.00 in0.0 mm 0.00 in0.0 mm 0.00 in0.0 mm
11:55 AM 64.4°F18.0°C 32.9°F0.5°C 31% 4.9 mph WSW7.9 kmh WSW 6.9 mph11.1 kmh 30.44 in1030.8 mb 0.00 in0.0 mm 0.00 in0.0 mm 0.00 in0.0 mm
12:00 PM 64.6°F18.1°C 34.0°F1.1°C 32% 4.0 mph SW6.4 kmh SW 7.6 mph12.2 kmh 30.44 in1030.8 mb 0.00 in0.0 mm 0.00 in0.0 mm 0.00 in0.0 mm
12:05 PM 64.4°F18.0°C 33.8°F1.0°C 32% 4.4 mph SW7.1 kmh SW 8.5 mph13.7 kmh 30.44 in1030.8 mb 0.00 in0.0 mm 0.00 in0.0 mm 0.00 in0.0 mm
12:10 PM 64.2°F17.9°C 33.3°F0.7°C 31% 5.8 mph SW9.3 kmh SW 8.1 mph13.0 kmh 30.43 in1030.5 mb 0.00 in0.0 mm 0.00 in0.0 mm 0.00 in0.0 mm
12:15 PM 64.2°F17.9°C 33.1°F0.6°C 31% 5.8 mph SW9.3 kmh SW 8.5 mph13.7 kmh 30.43 in1030.5 mb 0.00 in0.0 mm 0.00 in0.0 mm 0.00 in0.0 mm
12:20 PM 64.3°F17.9°C 33.3°F0.7°C 31% 5.8 mph SW9.3 kmh SW 8.5 mph13.7 kmh 30.43 in1030.5 mb 0.00 in0.0 mm 0.00 in0.0 mm 0.00 in0.0 mm
12:25 PM 64.6°F18.1°C 33.3°F0.7°C 31% 5.7 mph SW9.2 kmh SW 9.6 mph15.4 kmh 30.43 in1030.5 mb 0.00 in0.0 mm 0.00 in0.0 mm 0.00 in0.0 mm
12:30 PM 64.7°F18.2°C 33.4°F0.8°C 31% 5.4 mph SW8.7 kmh SW 8.7 mph14.0 kmh 30.43 in1030.5 mb 0.00 in0.0 mm 0.00 in0.0 mm 0.00 in0.0 mm
12:35 PM 64.8°F18.2°C 33.3°F0.7°C 31% 5.6 mph SW9.0 kmh SW 8.5 mph13.7 kmh 30.43 in1030.5 mb 0.00 in0.0 mm 0.00 in0.0 mm 0.00 in0.0 mm
12:40 PM 65.0°F18.3°C 32.6°F0.3°C 30% 6.3 mph WSW10.1 kmh WSW 8.7 mph14.0 kmh 30.42 in1030.1 mb 0.00 in0.0 mm 0.00 in0.0 mm 0.00 in0.0 mm
12:45 PM 65.3°F18.5°C 32.5°F0.3°C 29% 6.2 mph SW10.0 kmh SW 7.4 mph11.9 kmh 30.42 in1030.1 mb 0.00 in0.0 mm 0.00 in0.0 mm 0.00 in0.0 mm
12:50 PM 65.6°F18.7°C 34.2°F1.2°C 31% 5.8 mph SW9.3 kmh SW 6.5 mph10.5 kmh 30.42 in1030.1 mb 0.00 in0.0 mm 0.00 in0.0 mm 0.00 in0.0 mm
12:55 PM 65.4°F18.6°C 36.9°F2.7°C 35% 5.7 mph SW9.2 kmh SW 6.9 mph11.1 kmh 30.42 in1030.1 mb 0.00 in0.0 mm 0.00 in0.0 mm 0.00 in0.0 mm
01:00 PM 65.1°F18.4°C 39.1°F3.9°C 38% 5.1 mph SSW8.2 kmh SSW 7.4 mph11.9 kmh 30.42 in1030.1 mb 0.00 in0.0 mm 0.00 in0.0 mm 0.00 in0.0 mm
01:05 PM 65.0°F18.3°C 39.6°F4.2°C 39% 5.1 mph SSW8.2 kmh SSW 7.4 mph11.9 kmh 30.42 in1030.1 mb 0.00 in0.0 mm 0.00 in0.0 mm 0.00 in0.0 mm
01:10 PM 64.9°F18.3°C 39.8°F4.3°C 40% 5.1 mph SW8.2 kmh SW 7.6 mph12.2 kmh 30.41 in1029.8 mb 0.00 in0.0 mm 0.00 in0.0 mm 0.00 in0.0 mm
01:15 PM 64.8°F18.2°C 39.9°F4.4°C 40% 5.3 mph SW8.5 kmh SW 8.7 mph14.0 kmh 30.41 in1029.8 mb 0.00 in0.0 mm 0.00 in0.0 mm 0.00 in0.0 mm
01:20 PM 64.8°F18.2°C 39.9°F4.4°C 40% 5.8 mph SW9.3 kmh SW 8.1 mph13.0 kmh 30.41 in1029.8 mb 0.00 in0.0 mm 0.00 in0.0 mm 0.00 in0.0 mm
01:25 PM 64.8°F18.2°C 39.9°F4.4°C 40% 5.7 mph SW9.2 kmh SW 7.4 mph11.9 kmh 30.41 in1029.8 mb 0.00 in0.0 mm 0.00 in0.0 mm 0.00 in0.0 mm
01:30 PM 65.1°F18.4°C 39.6°F4.2°C 39% 5.1 mph SW8.2 kmh SW 8.1 mph13.0 kmh 30.40 in1029.5 mb 0.00 in0.0 mm 0.00 in0.0 mm 0.00 in0.0 mm
01:35 PM 65.5°F18.6°C 39.1°F3.9°C 38% 5.0 mph SW8.0 kmh SW 5.4 mph8.7 kmh 30.40 in1029.5 mb 0.00 in0.0 mm 0.00 in0.0 mm 0.00 in0.0 mm
01:40 PM 65.7°F18.7°C 38.7°F3.7°C 37% 4.7 mph SW7.6 kmh SW 8.7 mph14.0 kmh 30.40 in1029.5 mb 0.00 in0.0 mm 0.00 in0.0 mm 0.00 in0.0 mm
01:45 PM 66.1°F18.9°C 38.5°F3.6°C 36% 4.8 mph SW7.7 kmh SW 8.1 mph13.0 kmh 30.40 in1029.5 mb 0.00 in0.0 mm 0.00 in0.0 mm 0.00 in0.0 mm
01:50 PM 66.5°F19.2°C 38.6°F3.7°C 36% 5.1 mph SW8.2 kmh SW 6.9 mph11.1 kmh 30.40 in1029.5 mb 0.00 in0.0 mm 0.00 in0.0 mm 0.00 in0.0 mm
01:55 PM 66.6°F19.2°C 37.9°F3.3°C 35% 5.0 mph SW8.0 kmh SW 6.9 mph11.1 kmh 30.39 in1029.1 mb 0.00 in0.0 mm 0.00 in0.0 mm 0.00 in0.0 mm
02:00 PM 66.7°F19.3°C 36.2°F2.3°C 32% 4.7 mph SSW7.6 kmh SSW 7.6 mph12.2 kmh 30.39 in1029.1 mb 0.00 in0.0 mm 0.00 in0.0 mm 0.00 in0.0 mm
02:05 PM 66.6°F19.2°C 34.6°F1.4°C 30% 4.8 mph SSW7.7 kmh SSW 8.5 mph13.7 kmh 30.39 in1029.1 mb 0.00 in0.0 mm 0.00 in0.0 mm 0.00 in0.0 mm
02:10 PM 66.4°F19.1°C 35.6°F2.0°C 32% 5.1 mph SSW8.2 kmh SSW 8.1 mph13.0 kmh 30.39 in1029.1 mb 0.00 in0.0 mm 0.00 in0.0 mm 0.00 in0.0 mm
02:15 PM 66.4°F19.1°C 35.2°F1.8°C 31% 5.3 mph SSW8.5 kmh SSW 7.4 mph11.9 kmh 30.39 in1029.1 mb 0.00 in0.0 mm 0.00 in0.0 mm 0.00 in0.0 mm
02:20 PM 66.6°F19.2°C 35.0°F1.7°C 31% 5.8 mph SSW9.3 kmh SSW 8.5 mph13.7 kmh 30.39 in1029.1 mb 0.00 in0.0 mm 0.00 in0.0 mm 0.00 in0.0 mm
02:25 PM 66.7°F19.3°C 34.0°F1.1°C 30% 5.6 mph SSW9.0 kmh SSW 7.4 mph11.9 kmh 30.39 in1029.1 mb 0.00 in0.0 mm 0.00 in0.0 mm 0.00 in0.0 mm
02:30 PM 66.7°F19.3°C 34.2°F1.2°C 30% 4.7 mph SSW7.6 kmh SSW 6.5 mph10.5 kmh 30.39 in1029.1 mb 0.00 in0.0 mm 0.00 in0.0 mm 0.00 in0.0 mm
02:35 PM 67.0°F19.4°C 34.5°F1.4°C 30% 4.7 mph SSW7.6 kmh SSW 7.6 mph12.2 kmh 30.39 in1029.1 mb 0.00 in0.0 mm 0.00 in0.0 mm 0.00 in0.0 mm
02:40 PM 67.3°F19.6°C 34.0°F1.1°C 29% 4.7 mph SW7.6 kmh SW 8.5 mph13.7 kmh 30.39 in1029.1 mb 0.00 in0.0 mm 0.00 in0.0 mm 0.00 in0.0 mm
02:45 PM 67.5°F19.7°C 33.3°F0.7°C 28% 4.8 mph SW7.7 kmh SW 7.4 mph11.9 kmh 30.39 in1029.1 mb 0.00 in0.0 mm 0.00 in0.0 mm 0.00 in0.0 mm
02:50 PM 67.8°F19.9°C 32.6°F0.3°C 27% 5.1 mph SW8.2 kmh SW 8.5 mph13.7 kmh 30.39 in1029.1 mb 0.00 in0.0 mm 0.00 in0.0 mm 0.00 in0.0 mm
02:55 PM 67.6°F19.8°C 32.8°F0.4°C 27% 5.3 mph SW8.5 kmh SW 8.1 mph13.0 kmh 30.39 in1029.1 mb 0.00 in0.0 mm 0.00 in0.0 mm 0.00 in0.0 mm
03:00 PM 67.4°F19.7°C 33.3°F0.7°C 28% 5.8 mph SSW9.3 kmh SSW 8.5 mph13.7 kmh 30.39 in1029.1 mb 0.00 in0.0 mm 0.00 in0.0 mm 0.00 in0.0 mm
03:05 PM 67.4°F19.7°C 33.8°F1.0°C 29% 5.9 mph SSW9.5 kmh SSW 8.1 mph13.0 kmh 30.39 in1029.1 mb 0.00 in0.0 mm 0.00 in0.0 mm 0.00 in0.0 mm
03:10 PM 66.9°F19.4°C 33.6°F0.9°C 29% 6.3 mph SW10.1 kmh SW 7.6 mph12.2 kmh 30.39 in1029.1 mb 0.00 in0.0 mm 0.00 in0.0 mm 0.00 in0.0 mm
03:15 PM 66.9°F19.4°C 32.5°F0.3°C 28% 6.0 mph SSW9.7 kmh SSW 8.5 mph13.7 kmh 30.39 in1029.1 mb 0.00 in0.0 mm 0.00 in0.0 mm 0.00 in0.0 mm
03:20 PM 67.2°F19.6°C 33.1°F0.6°C 28% 5.1 mph S8.2 kmh S 10.1 mph16.3 kmh 30.39 in1029.1 mb 0.00 in0.0 mm 0.00 in0.0 mm 0.00 in0.0 mm
03:25 PM 67.4°F19.7°C 33.9°F1.1°C 29% 5.1 mph S8.2 kmh S 6.5 mph10.5 kmh 30.39 in1029.1 mb 0.00 in0.0 mm 0.00 in0.0 mm 0.00 in0.0 mm
03:45 PM 66.9°F19.4°C 34.5°F1.4°C 30% 5.6 mph S9.0 kmh S 9.2 mph14.8 kmh 30.39 in1029.1 mb 0.00 in0.0 mm 0.00 in0.0 mm 0.00 in0.0 mm
03:50 PM 66.6°F19.2°C 34.1°F1.2°C 30% 6.5 mph S10.5 kmh S 9.6 mph15.4 kmh 30.39 in1029.1 mb 0.00 in0.0 mm 0.00 in0.0 mm 0.00 in0.0 mm
03:55 PM 66.4°F19.1°C 34.0°F1.1°C 30% 6.5 mph S10.5 kmh S 8.1 mph13.0 kmh 30.39 in1029.1 mb 0.00 in0.0 mm 0.00 in0.0 mm 0.00 in0.0 mm
04:00 PM 66.4°F19.1°C 33.8°F1.0°C 30% 6.5 mph S10.5 kmh S 9.6 mph15.4 kmh 30.39 in1029.1 mb 0.00 in0.0 mm 0.00 in0.0 mm 0.00 in0.0 mm
04:05 PM 66.4°F19.1°C 32.9°F0.5°C 29% 6.2 mph S10.0 kmh S 8.5 mph13.7 kmh 30.39 in1029.1 mb 0.00 in0.0 mm 0.00 in0.0 mm 0.00 in0.0 mm
04:10 PM 66.2°F19.0°C 32.6°F0.3°C 29% 5.4 mph SSE8.7 kmh SSE 8.7 mph14.0 kmh 30.39 in1029.1 mb 0.00 in0.0 mm 0.00 in0.0 mm 0.00 in0.0 mm
04:15 PM 66.0°F18.9°C 32.9°F0.5°C 29% 5.5 mph SSE8.9 kmh SSE 8.7 mph14.0 kmh 30.39 in1029.1 mb 0.00 in0.0 mm 0.00 in0.0 mm 0.00 in0.0 mm
04:20 PM 66.0°F18.9°C 32.8°F0.4°C 29% 5.8 mph SE9.3 kmh SE 9.2 mph14.8 kmh 30.39 in1029.1 mb 0.00 in0.0 mm 0.00 in0.0 mm 0.00 in0.0 mm
04:25 PM 66.0°F18.9°C 32.9°F0.5°C 29% 5.8 mph SSE9.3 kmh SSE 8.1 mph13.0 kmh 30.39 in1029.1 mb 0.00 in0.0 mm 0.00 in0.0 mm 0.00 in0.0 mm
04:30 PM 66.1°F18.9°C 33.2°F0.7°C 29% 5.8 mph SSE9.3 kmh SSE 7.6 mph12.2 kmh 30.39 in1029.1 mb 0.00 in0.0 mm 0.00 in0.0 mm 0.00 in0.0 mm
04:35 PM 66.4°F19.1°C 33.6°F0.9°C 30% 5.7 mph SSE9.2 kmh SSE 9.2 mph14.8 kmh 30.39 in1029.1 mb 0.00 in0.0 mm 0.00 in0.0 mm 0.00 in0.0 mm
04:40 PM 66.4°F19.1°C 33.6°F0.9°C 30% 5.1 mph S8.2 kmh S 8.5 mph13.7 kmh 30.39 in1029.1 mb 0.00 in0.0 mm 0.00 in0.0 mm 0.00 in0.0 mm
04:45 PM 66.5°F19.2°C 34.3°F1.3°C 30% 4.9 mph S7.9 kmh S 8.5 mph13.7 kmh 30.39 in1029.1 mb 0.00 in0.0 mm 0.00 in0.0 mm 0.00 in0.0 mm
04:50 PM 66.4°F19.1°C 34.9°F1.6°C 31% 4.3 mph S6.9 kmh S 7.6 mph12.2 kmh 30.39 in1029.1 mb 0.00 in0.0 mm 0.00 in0.0 mm 0.00 in0.0 mm
04:55 PM 66.2°F19.0°C 34.7°F1.5°C 31% 4.4 mph S7.1 kmh S 7.6 mph12.2 kmh 30.39 in1029.1 mb 0.00 in0.0 mm 0.00 in0.0 mm 0.00 in0.0 mm
05:00 PM 65.9°F18.8°C 34.0°F1.1°C 31% 5.1 mph SSE8.2 kmh SSE 8.7 mph14.0 kmh 30.39 in1029.1 mb 0.00 in0.0 mm 0.00 in0.0 mm 0.00 in0.0 mm
05:05 PM 65.7°F18.7°C 33.4°F0.8°C 30% 5.2 mph SSE8.4 kmh SSE 7.6 mph12.2 kmh 30.39 in1029.1 mb 0.00 in0.0 mm 0.00 in0.0 mm 0.00 in0.0 mm
05:10 PM 65.6°F18.7°C 33.3°F0.7°C 30% 5.4 mph SE8.7 kmh SE 8.1 mph13.0 kmh 30.40 in1029.5 mb 0.00 in0.0 mm 0.00 in0.0 mm 0.00 in0.0 mm
05:15 PM 64.9°F18.3°C 33.1°F0.6°C 30% 5.4 mph SE8.7 kmh SE 7.6 mph12.2 kmh 30.40 in1029.5 mb 0.00 in0.0 mm 0.00 in0.0 mm 0.00 in0.0 mm
05:20 PM 64.3°F17.9°C 33.0°F0.6°C 31% 5.4 mph SE8.7 kmh SE 7.4 mph11.9 kmh 30.40 in1029.5 mb 0.00 in0.0 mm 0.00 in0.0 mm 0.00 in0.0 mm
05:25 PM 63.8°F17.7°C 32.6°F0.3°C 31% 5.1 mph SE8.2 kmh SE 5.4 mph8.7 kmh 30.40 in1029.5 mb 0.00 in0.0 mm 0.00 in0.0 mm 0.00 in0.0 mm
05:30 PM 63.5°F17.5°C 32.3°F0.2°C 31% 4.3 mph SE6.9 kmh SE 6.5 mph10.5 kmh 30.40 in1029.5 mb 0.00 in0.0 mm 0.00 in0.0 mm 0.00 in0.0 mm
05:35 PM 63.2°F17.3°C 32.3°F0.2°C 31% 4.1 mph SE6.6 kmh SE 5.4 mph8.7 kmh 30.40 in1029.5 mb 0.00 in0.0 mm 0.00 in0.0 mm 0.00 in0.0 mm
05:40 PM 63.0°F17.2°C 32.7°F0.4°C 32% 3.6 mph S5.8 kmh S 4.3 mph6.9 kmh 30.40 in1029.5 mb 0.00 in0.0 mm 0.00 in0.0 mm 0.00 in0.0 mm
05:45 PM 62.8°F17.1°C 32.5°F0.3°C 32% 3.5 mph S5.6 kmh S 5.1 mph8.2 kmh 30.40 in1029.5 mb 0.00 in0.0 mm 0.00 in0.0 mm 0.00 in0.0 mm
05:50 PM 62.5°F16.9°C 32.2°F0.1°C 32% 3.1 mph SSW5.0 kmh SSW 4.3 mph6.9 kmh 30.40 in1029.5 mb 0.00 in0.0 mm 0.00 in0.0 mm 0.00 in0.0 mm
05:55 PM 62.3°F16.8°C 32.7°F0.4°C 33% 3.1 mph SSW5.0 kmh SSW 4.3 mph6.9 kmh 30.40 in1029.5 mb 0.00 in0.0 mm 0.00 in0.0 mm 0.00 in0.0 mm
06:00 PM 62.0°F16.7°C 32.6°F0.3°C 33% 3.1 mph S5.0 kmh S 5.1 mph8.2 kmh 30.40 in1029.5 mb 0.00 in0.0 mm 0.00 in0.0 mm 0.00 in0.0 mm
06:05 PM 61.8°F16.6°C 33.1°F0.6°C 34% 3.1 mph S5.0 kmh S 4.7 mph7.6 kmh 30.40 in1029.5 mb 0.00 in0.0 mm 0.00 in0.0 mm 0.00 in0.0 mm
06:10 PM 61.5°F16.4°C 32.9°F0.5°C 34% 3.1 mph S5.0 kmh S 4.0 mph6.4 kmh 30.40 in1029.5 mb 0.00 in0.0 mm 0.00 in0.0 mm 0.00 in0.0 mm
06:15 PM 61.3°F16.3°C 33.2°F0.7°C 35% 3.1 mph S5.0 kmh S 4.7 mph7.6 kmh 30.40 in1029.5 mb 0.00 in0.0 mm 0.00 in0.0 mm 0.00 in0.0 mm
06:20 PM 61.2°F16.2°C 33.3°F0.7°C 35% 2.9 mph S4.7 kmh S 4.7 mph7.6 kmh 30.40 in1029.5 mb 0.00 in0.0 mm 0.00 in0.0 mm 0.00 in0.0 mm
06:25 PM 61.2°F16.2°C 33.3°F0.7°C 35% 3.1 mph S5.0 kmh S 4.7 mph7.6 kmh 30.41 in1029.8 mb 0.00 in0.0 mm 0.00 in0.0 mm 0.00 in0.0 mm
06:30 PM 61.1°F16.2°C 33.2°F0.7°C 35% 3.6 mph SSE5.8 kmh SSE 3.6 mph5.8 kmh 30.41 in1029.8 mb 0.00 in0.0 mm 0.00 in0.0 mm 0.00 in0.0 mm
06:35 PM 61.0°F16.1°C 33.5°F0.8°C 36% 3.4 mph SSE5.5 kmh SSE 3.6 mph5.8 kmh 30.41 in1029.8 mb 0.00 in0.0 mm 0.00 in0.0 mm 0.00 in0.0 mm
06:40 PM 60.9°F16.1°C 33.3°F0.7°C 35% 2.9 mph S4.7 kmh S 4.0 mph6.4 kmh 30.41 in1029.8 mb 0.00 in0.0 mm 0.00 in0.0 mm 0.00 in0.0 mm
06:45 PM 60.7°F15.9°C 32.9°F0.5°C 35% 3.0 mph S4.8 kmh S 3.6 mph5.8 kmh 30.41 in1029.8 mb 0.00 in0.0 mm 0.00 in0.0 mm 0.00 in0.0 mm
06:50 PM 60.6°F15.9°C 33.3°F0.7°C 36% 3.1 mph SW5.0 kmh SW 3.6 mph5.8 kmh 30.41 in1029.8 mb 0.00 in0.0 mm 0.00 in0.0 mm 0.00 in0.0 mm
06:55 PM 60.6°F15.9°C 33.5°F0.8°C 36% 3.1 mph SW5.0 kmh SW 3.6 mph5.8 kmh 30.41 in1029.8 mb 0.00 in0.0 mm 0.00 in0.0 mm 0.00 in0.0 mm
07:00 PM 60.6°F15.9°C 33.5°F0.8°C 36% 2.9 mph SW4.7 kmh SW 3.1 mph5.0 kmh 30.41 in1029.8 mb 0.00 in0.0 mm 0.00 in0.0 mm 0.00 in0.0 mm
07:05 PM 60.4°F15.8°C 33.3°F0.7°C 36% 2.8 mph SW4.5 kmh SW 3.6 mph5.8 kmh 30.41 in1029.8 mb 0.00 in0.0 mm 0.00 in0.0 mm 0.00 in0.0 mm
07:10 PM 60.2°F15.7°C 33.3°F0.7°C 36% 2.5 mph SW4.0 kmh SW 4.3 mph6.9 kmh 30.41 in1029.8 mb 0.00 in0.0 mm 0.00 in0.0 mm 0.00 in0.0 mm
07:15 PM 59.8°F15.4°C 34.1°F1.2°C 38% 2.5 mph SW4.0 kmh SW 4.0 mph6.4 kmh 30.41 in1029.8 mb 0.00 in0.0 mm 0.00 in0.0 mm 0.00 in0.0 mm
07:20 PM 59.5°F15.3°C 33.7°F0.9°C 38% 2.5 mph WSW4.0 kmh WSW 4.0 mph6.4 kmh 30.41 in1029.8 mb 0.00 in0.0 mm 0.00 in0.0 mm 0.00 in0.0 mm
07:25 PM 59.2°F15.1°C 33.6°F0.9°C 38% 2.4 mph W3.9 kmh W 2.9 mph4.7 kmh 30.41 in1029.8 mb 0.00 in0.0 mm 0.00 in0.0 mm 0.00 in0.0 mm
07:30 PM 59.0°F15.0°C 33.9°F1.1°C 39% 2.0 mph WNW3.2 kmh WNW 4.3 mph6.9 kmh 30.42 in1030.1 mb 0.00 in0.0 mm 0.00 in0.0 mm 0.00 in0.0 mm
07:35 PM 58.8°F14.9°C 33.9°F1.1°C 39% 2.1 mph WNW3.4 kmh WNW 4.0 mph6.4 kmh 30.42 in1030.1 mb 0.00 in0.0 mm 0.00 in0.0 mm 0.00 in0.0 mm
07:40 PM 58.6°F14.8°C 33.8°F1.0°C 39% 2.5 mph WNW4.0 kmh WNW 4.3 mph6.9 kmh 30.42 in1030.1 mb 0.00 in0.0 mm 0.00 in0.0 mm 0.00 in0.0 mm
07:45 PM 58.5°F14.7°C 33.8°F1.0°C 39% 2.6 mph WNW4.2 kmh WNW 5.8 mph9.3 kmh 30.42 in1030.1 mb 0.00 in0.0 mm 0.00 in0.0 mm 0.00 in0.0 mm
07:50 PM 58.3°F14.6°C 34.1°F1.2°C 40% 3.1 mph WNW5.0 kmh WNW 7.4 mph11.9 kmh 30.42 in1030.1 mb 0.00 in0.0 mm 0.00 in0.0 mm 0.00 in0.0 mm
07:55 PM 58.1°F14.5°C 34.4°F1.3°C 41% 3.6 mph WNW5.8 kmh WNW 7.6 mph12.2 kmh 30.42 in1030.1 mb 0.00 in0.0 mm 0.00 in0.0 mm 0.00 in0.0 mm
08:00 PM 57.9°F14.4°C 34.9°F1.6°C 42% 5.4 mph WNW8.7 kmh WNW 7.6 mph12.2 kmh 30.42 in1030.1 mb 0.00 in0.0 mm 0.00 in0.0 mm 0.00 in0.0 mm
08:05 PM 57.6°F14.2°C 34.7°F1.5°C 42% 5.4 mph WNW8.7 kmh WNW 6.9 mph11.1 kmh 30.42 in1030.1 mb 0.00 in0.0 mm 0.00 in0.0 mm 0.00 in0.0 mm
08:10 PM 57.2°F14.0°C 34.8°F1.6°C 43% 5.4 mph WNW8.7 kmh WNW 5.4 mph8.7 kmh 30.42 in1030.1 mb 0.00 in0.0 mm 0.00 in0.0 mm 0.00 in0.0 mm
08:15 PM 56.9°F13.8°C 34.7°F1.5°C 43% 5.1 mph WNW8.2 kmh WNW 6.3 mph10.1 kmh 30.42 in1030.1 mb 0.00 in0.0 mm 0.00 in0.0 mm 0.00 in0.0 mm
08:20 PM 56.7°F13.7°C 34.5°F1.4°C 43% 4.3 mph WNW6.9 kmh WNW 6.9 mph11.1 kmh 30.42 in1030.1 mb 0.00 in0.0 mm 0.00 in0.0 mm 0.00 in0.0 mm
08:25 PM 56.4°F13.6°C 34.4°F1.3°C 43% 4.3 mph W6.9 kmh W 6.5 mph10.5 kmh 30.42 in1030.1 mb 0.00 in0.0 mm 0.00 in0.0 mm 0.00 in0.0 mm
08:30 PM 55.9°F13.3°C 34.3°F1.3°C 44% 4.7 mph WSW7.6 kmh WSW 6.5 mph10.5 kmh 30.42 in1030.1 mb 0.00 in0.0 mm 0.00 in0.0 mm 0.00 in0.0 mm
08:35 PM 55.6°F13.1°C 34.3°F1.3°C 44% 4.7 mph W7.6 kmh W 5.4 mph8.7 kmh 30.42 in1030.1 mb 0.00 in0.0 mm 0.00 in0.0 mm 0.00 in0.0 mm
08:40 PM 55.2°F12.9°C 34.2°F1.2°C 45% 4.7 mph W7.6 kmh W 4.7 mph7.6 kmh 30.42 in1030.1 mb 0.00 in0.0 mm 0.00 in0.0 mm 0.00 in0.0 mm
08:45 PM 54.8°F12.7°C 34.0°F1.1°C 45% 4.6 mph W7.4 kmh W 6.3 mph10.1 kmh 30.42 in1030.1 mb 0.00 in0.0 mm 0.00 in0.0 mm 0.00 in0.0 mm
08:50 PM 54.3°F12.4°C 34.0°F1.1°C 46% 4.3 mph WSW6.9 kmh WSW 6.9 mph11.1 kmh 30.42 in1030.1 mb 0.00 in0.0 mm 0.00 in0.0 mm 0.00 in0.0 mm
08:55 PM 53.9°F12.2°C 34.0°F1.1°C 47% 4.5 mph WSW7.2 kmh WSW 8.1 mph13.0 kmh 30.42 in1030.1 mb 0.00 in0.0 mm 0.00 in0.0 mm 0.00 in0.0 mm
09:00 PM 53.4°F11.9°C 33.7°F0.9°C 47% 5.4 mph WSW8.7 kmh WSW 7.6 mph12.2 kmh 30.42 in1030.1 mb 0.00 in0.0 mm 0.00 in0.0 mm 0.00 in0.0 mm
09:05 PM 53.2°F11.8°C 33.9°F1.1°C 48% 5.5 mph WSW8.9 kmh WSW 6.5 mph10.5 kmh 30.42 in1030.1 mb 0.00 in0.0 mm 0.00 in0.0 mm 0.00 in0.0 mm
09:10 PM 53.0°F11.7°C 33.9°F1.1°C 48% 5.8 mph WSW9.3 kmh WSW 6.3 mph10.1 kmh 30.43 in1030.5 mb 0.00 in0.0 mm 0.00 in0.0 mm 0.00 in0.0 mm
09:15 PM 52.8°F11.6°C 33.7°F0.9°C 48% 5.5 mph WSW8.9 kmh WSW 6.9 mph11.1 kmh 30.43 in1030.5 mb 0.00 in0.0 mm 0.00 in0.0 mm 0.00 in0.0 mm
09:20 PM 52.6°F11.4°C 33.7°F0.9°C 49% 4.3 mph W6.9 kmh W 6.5 mph10.5 kmh 30.43 in1030.5 mb 0.00 in0.0 mm 0.00 in0.0 mm 0.00 in0.0 mm
09:25 PM 52.5°F11.4°C 33.9°F1.1°C 49% 4.5 mph W7.2 kmh W 7.4 mph11.9 kmh 30.43 in1030.5 mb 0.00 in0.0 mm 0.00 in0.0 mm 0.00 in0.0 mm
09:30 PM 52.3°F11.3°C 33.8°F1.0°C 49% 5.4 mph WSW8.7 kmh WSW 8.5 mph13.7 kmh 30.43 in1030.5 mb 0.00 in0.0 mm 0.00 in0.0 mm 0.00 in0.0 mm
09:35 PM 52.3°F11.3°C 33.7°F0.9°C 49% 5.5 mph W8.9 kmh W 8.5 mph13.7 kmh 30.43 in1030.5 mb 0.00 in0.0 mm 0.00 in0.0 mm 0.00 in0.0 mm
09:40 PM 52.2°F11.2°C 33.6°F0.9°C 49% 5.8 mph W9.3 kmh W 8.5 mph13.7 kmh 30.43 in1030.5 mb 0.00 in0.0 mm 0.00 in0.0 mm 0.00 in0.0 mm
09:45 PM 52.2°F11.2°C 33.6°F0.9°C 49% 6.0 mph W9.7 kmh W 8.7 mph14.0 kmh 30.43 in1030.5 mb 0.00 in0.0 mm 0.00 in0.0 mm 0.00 in0.0 mm
09:50 PM 52.2°F11.2°C 33.3°F0.7°C 48% 6.5 mph W10.5 kmh W 7.4 mph11.9 kmh 30.43 in1030.5 mb 0.00 in0.0 mm 0.00 in0.0 mm 0.00 in0.0 mm
09:55 PM 52.2°F11.2°C 33.1°F0.6°C 48% 6.3 mph W10.1 kmh W 7.4 mph11.9 kmh 30.43 in1030.5 mb 0.00 in0.0 mm 0.00 in0.0 mm 0.00 in0.0 mm
10:00 PM 52.1°F11.2°C 33.0°F0.6°C 48% 5.8 mph W9.3 kmh W 7.6 mph12.2 kmh 30.43 in1030.5 mb 0.00 in0.0 mm 0.00 in0.0 mm 0.00 in0.0 mm
10:05 PM 52.0°F11.1°C 33.3°F0.7°C 49% 5.8 mph W9.3 kmh W 8.5 mph13.7 kmh 30.43 in1030.5 mb 0.00 in0.0 mm 0.00 in0.0 mm 0.00 in0.0 mm
10:10 PM 51.7°F10.9°C 33.2°F0.7°C 49% 5.8 mph WSW9.3 kmh WSW 7.6 mph12.2 kmh 30.43 in1030.5 mb 0.00 in0.0 mm 0.00 in0.0 mm 0.00 in0.0 mm
10:15 PM 51.6°F10.9°C 33.1°F0.6°C 49% 5.8 mph WSW9.3 kmh WSW 7.4 mph11.9 kmh 30.43 in1030.5 mb 0.00 in0.0 mm 0.00 in0.0 mm 0.00 in0.0 mm
10:20 PM 51.5°F10.8°C 33.0°F0.6°C 49% 5.8 mph W9.3 kmh W 6.9 mph11.1 kmh 30.43 in1030.5 mb 0.00 in0.0 mm 0.00 in0.0 mm 0.00 in0.0 mm
10:25 PM 51.3°F10.7°C 32.8°F0.4°C 49% 5.7 mph W9.2 kmh W 7.6 mph12.2 kmh 30.43 in1030.5 mb 0.00 in0.0 mm 0.00 in0.0 mm 0.00 in0.0 mm
10:30 PM 51.2°F10.7°C 32.7°F0.4°C 49% 5.1 mph WSW8.2 kmh WSW 8.5 mph13.7 kmh 30.43 in1030.5 mb 0.00 in0.0 mm 0.00 in0.0 mm 0.00 in0.0 mm
10:35 PM 51.1°F10.6°C 32.6°F0.3°C 49% 5.4 mph WSW8.7 kmh WSW 8.5 mph13.7 kmh 30.43 in1030.5 mb 0.00 in0.0 mm 0.00 in0.0 mm 0.00 in0.0 mm
10:40 PM 51.1°F10.6°C 32.6°F0.3°C 49% 6.3 mph WSW10.1 kmh WSW 9.6 mph15.4 kmh 30.42 in1030.1 mb 0.00 in0.0 mm 0.00 in0.0 mm 0.00 in0.0 mm
10:45 PM 51.0°F10.6°C 32.1°F0.1°C 48% 6.4 mph WSW10.3 kmh WSW 9.6 mph15.4 kmh 30.42 in1030.1 mb 0.00 in0.0 mm 0.00 in0.0 mm 0.00 in0.0 mm
10:50 PM 51.1°F10.6°C 32.1°F0.1°C 48% 6.9 mph W11.1 kmh W 10.7 mph17.2 kmh 30.42 in1030.1 mb 0.00 in0.0 mm 0.00 in0.0 mm 0.00 in0.0 mm
10:55 PM 51.1°F10.6°C 32.0°F0.0°C 48% 7.2 mph W11.6 kmh W 10.1 mph16.3 kmh 30.42 in1030.1 mb 0.00 in0.0 mm 0.00 in0.0 mm 0.00 in0.0 mm
11:00 PM 51.0°F10.6°C 32.0°F0.0°C 48% 8.1 mph W13.0 kmh W 8.5 mph13.7 kmh 30.42 in1030.1 mb 0.00 in0.0 mm 0.00 in0.0 mm 0.00 in0.0 mm
11:05 PM 50.9°F10.5°C 31.9°F-0.1°C 48% 7.8 mph W12.6 kmh W 9.6 mph15.4 kmh 30.42 in1030.1 mb 0.00 in0.0 mm 0.00 in0.0 mm 0.00 in0.0 mm
11:10 PM 50.8°F10.4°C 31.5°F-0.3°C 47% 6.9 mph W11.1 kmh W 11.2 mph18.0 kmh 30.42 in1030.1 mb 0.00 in0.0 mm 0.00 in0.0 mm 0.00 in0.0 mm
11:15 PM 50.9°F10.5°C 31.4°F-0.3°C 47% 7.2 mph W11.6 kmh W 11.2 mph18.0 kmh 30.42 in1030.1 mb 0.00 in0.0 mm 0.00 in0.0 mm 0.00 in0.0 mm
11:20 PM 51.1°F10.6°C 31.5°F-0.3°C 47% 8.1 mph W13.0 kmh W 11.2 mph18.0 kmh 30.42 in1030.1 mb 0.00 in0.0 mm 0.00 in0.0 mm 0.00 in0.0 mm
11:25 PM 51.1°F10.6°C 31.6°F-0.2°C 47% 8.1 mph W13.0 kmh W 10.1 mph16.3 kmh 30.42 in1030.1 mb 0.00 in0.0 mm 0.00 in0.0 mm 0.00 in0.0 mm
11:30 PM 51.1°F10.6°C 31.6°F-0.2°C 47% 8.5 mph W13.7 kmh W 9.6 mph15.4 kmh 30.42 in1030.1 mb 0.00 in0.0 mm 0.00 in0.0 mm 0.00 in0.0 mm
11:35 PM 51.1°F10.6°C 31.6°F-0.2°C 47% 8.3 mph W13.4 kmh W 10.3 mph16.6 kmh 30.42 in1030.1 mb 0.00 in0.0 mm 0.00 in0.0 mm 0.00 in0.0 mm
11:40 PM 51.0°F10.6°C 31.5°F-0.3°C 47% 7.6 mph W12.2 kmh W 10.7 mph17.2 kmh 30.42 in1030.1 mb 0.00 in0.0 mm 0.00 in0.0 mm 0.00 in0.0 mm
11:45 PM 50.9°F10.5°C 31.4°F-0.3°C 47% 7.7 mph W12.4 kmh W 11.2 mph18.0 kmh 30.42 in1030.1 mb 0.00 in0.0 mm 0.00 in0.0 mm 0.00 in0.0 mm
11:50 PM 50.7°F10.4°C 31.3°F-0.4°C 47% 8.1 mph W13.0 kmh W 11.2 mph18.0 kmh 30.42 in1030.1 mb 0.00 in0.0 mm 0.00 in0.0 mm 0.00 in0.0 mm
11:55 PM 50.7°F10.4°C 31.2°F-0.4°C 47% 8.2 mph W13.2 kmh W 11.4 mph18.3 kmh 30.42 in1030.1 mb 0.00 in0.0 mm 0.00 in0.0 mm 0.00 in0.0 mm